createdAt,value
2019-02-02T00:10:42.244Z,108.95
2019-02-02T00:13:11.883Z,109.70
2019-02-02T00:15:41.659Z,129.27
2019-02-02T00:18:11.313Z,153.20
2019-02-02T00:20:40.985Z,152.43
2019-02-02T00:23:10.507Z,182.10
2019-02-02T00:25:40.298Z,167.93
2019-02-02T00:28:09.795Z,210.38
2019-02-02T00:30:39.358Z,206.13
2019-02-02T00:33:09.064Z,198.47
2019-02-02T00:35:38.535Z,214.72
2019-02-02T00:38:08.122Z,222.63
2019-02-02T00:40:37.865Z,216.88
2019-02-02T00:43:07.475Z,221.37
2019-02-02T00:45:37.056Z,220.48
2019-02-02T00:48:06.858Z,219.43
2019-02-02T00:50:36.583Z,219.30
2019-02-02T00:53:06.136Z,193.72
2019-02-02T00:55:35.739Z,138.45
2019-02-02T00:58:05.936Z,155.12
2019-02-02T01:00:35.591Z,124.02
2019-02-02T01:03:05.242Z,131.70
2019-02-02T01:05:34.970Z,114.50
2019-02-02T01:08:04.746Z,125.92
2019-02-02T01:10:35.127Z,127.47
2019-02-02T01:13:05.023Z,126.20
2019-02-02T01:15:34.550Z,127.53
2019-02-02T01:41:13.788Z,83.20
2019-02-02T01:43:43.563Z,86.50
2019-02-02T01:46:13.182Z,89.20
2019-02-02T01:48:42.850Z,67.15
2019-02-02T01:51:12.636Z,57.05
2019-02-02T01:53:42.314Z,58.75
2019-02-02T01:56:11.628Z,57.45
2019-02-02T01:58:41.228Z,56.95
2019-02-02T02:01:11.094Z,56.55
2019-02-02T02:21:03.043Z,69.65
2019-02-02T02:23:32.868Z,73.50
2019-02-02T02:26:02.485Z,75.25
2019-02-02T02:28:32.103Z,83.67
2019-02-02T02:31:01.799Z,83.70
2019-02-02T02:33:31.281Z,90.12
2019-02-02T02:36:00.727Z,112.32
2019-02-02T02:38:30.473Z,119.02
2019-02-02T02:41:00.228Z,144.97
2019-02-02T02:43:29.590Z,165.57
2019-02-02T02:45:59.146Z,170.55
2019-02-02T02:48:28.672Z,182.88
2019-02-02T02:50:58.324Z,178.60
2019-02-02T02:53:27.877Z,180.82
2019-02-02T02:55:57.543Z,172.13
2019-02-02T02:58:27.166Z,176.02
2019-02-02T03:00:56.837Z,168.47
2019-02-02T03:03:26.421Z,163.15
2019-02-02T03:05:56.091Z,149.70
2019-02-02T03:08:25.819Z,169.80
2019-02-02T03:10:55.272Z,157.50
2019-02-02T03:13:25.004Z,163.55
2019-02-02T03:15:54.991Z,157.10
2019-02-02T03:18:24.831Z,158.37
2019-02-02T03:20:54.547Z,162.43
2019-02-02T03:23:24.207Z,147.02
2019-02-02T03:25:53.608Z,143.70
2019-02-02T03:28:23.050Z,142.53
2019-02-02T03:30:53.163Z,122.95
2019-02-02T03:33:22.706Z,123.70
2019-02-02T03:35:52.383Z,183.65
2019-02-02T03:38:22.339Z,110.78
2019-02-02T03:40:51.921Z,105.95
2019-02-02T03:43:21.403Z,94.47
2019-02-02T03:45:51.380Z,105.47
2019-02-02T03:48:20.951Z,103.40
2019-02-02T03:50:50.655Z,88.27
2019-02-02T03:53:20.311Z,94.55
2019-02-02T03:55:50.023Z,94.45
2019-02-02T03:58:19.592Z,83.03
2019-02-02T04:00:49.237Z,71.45
2019-02-02T04:03:18.919Z,74.27
2019-02-02T04:05:48.637Z,66.60
2019-02-02T04:08:18.459Z,70.30
2019-02-02T04:10:48.068Z,75.67
2019-02-02T04:13:17.582Z,83.92
2019-02-02T04:15:47.246Z,70.03
2019-02-02T04:18:16.871Z,68.67
2019-02-02T04:20:46.379Z,70.47
2019-02-02T04:23:16.013Z,70.80
2019-02-02T04:25:45.999Z,69.82
2019-02-02T04:28:15.467Z,66.57
2019-02-02T04:30:45.263Z,66.40
2019-02-02T04:33:14.930Z,64.92
2019-02-02T04:35:44.523Z,64.95
2019-02-02T04:38:14.374Z,66.40
2019-02-02T04:40:43.967Z,69.65
2019-02-02T04:43:13.667Z,68.50
2019-02-02T04:45:43.467Z,72.40
2019-02-02T04:48:13.187Z,69.25
2019-02-02T05:08:04.790Z,76.65
2019-02-02T05:10:34.499Z,90.12
2019-02-02T05:13:04.308Z,91.50
2019-02-02T05:15:33.788Z,80.05
2019-02-02T05:18:03.319Z,73.67
2019-02-02T05:20:33.788Z,72.70
2019-02-02T05:23:03.511Z,70.52
2019-02-02T05:25:33.213Z,71.10
2019-02-02T05:28:03.327Z,74.75
2019-02-02T05:30:33.040Z,68.25
2019-02-02T05:33:02.671Z,72.20
2019-02-02T05:35:32.255Z,72.32
2019-02-02T05:38:02.108Z,62.98
2019-02-02T05:40:31.729Z,68.40
2019-02-02T05:43:01.405Z,59.85
2019-02-02T05:45:31.020Z,68.12
2019-02-02T05:48:00.626Z,81.65
2019-02-02T05:50:30.229Z,80.20
2019-02-02T05:52:59.859Z,66.12
2019-02-02T05:55:29.439Z,77.47
2019-02-02T05:57:59.247Z,74.75
2019-02-02T06:00:41.545Z,61.65
2019-02-02T06:03:11.287Z,66.35
2019-02-02T06:05:40.781Z,61.80
2019-02-02T06:08:10.581Z,59.85
2019-02-02T06:10:40.323Z,55.95
2019-02-02T06:13:09.832Z,71.67
2019-02-02T06:15:39.606Z,58.83
2019-02-02T06:35:31.303Z,50.30
2019-02-02T06:38:01.064Z,51.48
2019-02-02T06:40:30.446Z,49.40
2019-02-02T06:43:00.004Z,47.10
2019-02-02T06:45:32.659Z,56.48
2019-02-02T06:48:02.450Z,49.38
2019-02-02T06:50:31.900Z,40.85
2019-02-02T06:53:01.936Z,40.98
2019-02-02T06:55:31.516Z,42.40
2019-02-02T06:58:00.873Z,43.25
2019-02-02T07:00:30.712Z,36.63
2019-02-02T07:03:00.385Z,39.45
2019-02-02T07:22:52.005Z,56.95
2019-02-02T07:25:21.590Z,48.90
2019-02-02T07:27:51.191Z,33.42
2019-02-02T07:30:28.677Z,32.78
2019-02-02T07:32:51.029Z,37.42
2019-02-02T07:35:20.036Z,32.48
2019-02-02T07:37:49.847Z,35.75
2019-02-02T07:57:41.108Z,41.10
2019-02-02T08:00:38.967Z,43.30
2019-02-02T08:02:57.000Z,54.30
2019-02-02T08:22:50.412Z,97.95
2019-02-02T08:25:20.009Z,94.95
2019-02-02T08:45:12.111Z,41.42
2019-02-02T09:05:04.195Z,37.13
2019-02-02T09:07:34.074Z,37.03
2019-02-02T09:10:03.869Z,37.00
2019-02-02T09:12:33.514Z,33.67
2019-02-02T09:15:02.961Z,32.67
2019-02-02T09:17:32.515Z,57.55
2019-02-02T09:20:02.531Z,33.48
2019-02-02T09:42:48.509Z,74.30
2019-02-02T09:45:18.868Z,53.90
2019-02-02T09:47:48.475Z,52.95
2019-02-02T10:07:40.480Z,44.40
2019-02-02T10:10:13.567Z,55.30
2019-02-02T10:12:43.242Z,45.75
2019-02-02T10:15:12.905Z,44.60
2019-02-02T10:17:42.505Z,38.67
2019-02-02T10:20:14.277Z,36.90
2019-02-02T10:40:07.256Z,31.62
2019-02-02T10:42:36.856Z,31.70
2019-02-02T10:45:07.648Z,31.02
2019-02-02T10:47:37.394Z,34.38
2019-02-02T10:50:08.280Z,36.33
2019-02-02T11:09:59.437Z,27.82
2019-02-02T11:12:29.091Z,26.57
2019-02-02T11:14:58.841Z,26.12
2019-02-02T11:17:28.510Z,23.85
2019-02-02T11:19:58.025Z,23.90
2019-02-02T11:22:27.921Z,22.20
2019-02-02T11:24:57.219Z,22.52
2019-02-02T11:27:28.036Z,23.05
2019-02-02T11:29:57.628Z,23.52
2019-02-02T11:32:27.136Z,23.47
2019-02-02T11:34:56.724Z,22.58
2019-02-02T11:37:26.350Z,22.15
2019-02-02T11:39:55.881Z,22.40
2019-02-02T11:42:25.511Z,28.07
2019-02-02T11:44:54.866Z,25.08
2019-02-02T11:47:24.475Z,25.80
2019-02-02T11:49:54.175Z,20.02
2019-02-02T11:52:23.731Z,19.77
2019-02-02T11:54:53.346Z,21.37
2019-02-02T11:57:23.098Z,20.57
2019-02-02T11:59:52.931Z,22.25
2019-02-02T12:02:23.144Z,20.95
2019-02-02T12:04:52.790Z,21.05
2019-02-02T12:07:22.467Z,17.07
2019-02-02T12:09:52.172Z,16.65
2019-02-02T12:12:22.047Z,17.42
2019-02-02T12:32:25.594Z,18.95
2019-02-02T12:34:43.679Z,17.67
2019-02-02T12:54:34.897Z,9.18
2019-02-02T12:57:04.733Z,10.10
2019-02-02T12:59:34.404Z,8.50
2019-02-02T13:02:03.821Z,8.40
2019-02-02T13:21:56.100Z,8.93
2019-02-02T13:24:25.645Z,9.70
2019-02-02T13:26:55.289Z,11.45
2019-02-02T13:29:25.441Z,14.45
2019-02-02T13:31:54.916Z,12.00
2019-02-02T13:34:24.516Z,12.33
2019-02-02T13:36:54.079Z,11.65
2019-02-02T13:39:23.681Z,55.60
2019-02-02T13:41:53.355Z,14.28
2019-02-02T13:44:22.877Z,14.38
2019-02-02T13:46:52.460Z,16.55
2019-02-02T13:49:22.224Z,16.57
2019-02-02T13:51:51.824Z,16.97
2019-02-02T13:54:21.457Z,17.67
2019-02-02T13:56:51.180Z,15.20
2019-02-02T13:59:20.727Z,17.77
2019-02-02T14:01:50.408Z,16.90
2019-02-02T14:04:19.895Z,18.02
2019-02-02T14:24:11.095Z,15.85
2019-02-02T14:26:40.531Z,15.05
2019-02-02T14:29:09.901Z,16.70
2019-02-02T14:31:40.594Z,17.50
2019-02-02T14:51:32.413Z,15.08
2019-02-02T14:54:02.087Z,15.45
2019-02-02T14:56:31.651Z,14.87
2019-02-02T14:59:03.556Z,15.72
2019-02-02T15:01:31.404Z,15.85
2019-02-02T15:04:01.118Z,16.60
2019-02-02T15:06:30.720Z,20.77
2019-02-02T15:09:00.441Z,30.92
2019-02-02T15:11:30.024Z,31.37
2019-02-02T15:13:59.625Z,29.82
2019-02-02T15:16:29.232Z,30.97
2019-02-02T15:18:59.014Z,32.05
2019-02-02T15:21:28.579Z,33.65
2019-02-02T15:23:58.198Z,31.82
2019-02-02T15:26:27.690Z,29.30
2019-02-02T15:28:57.483Z,26.95
2019-02-02T15:31:27.136Z,26.45
2019-02-02T15:33:56.807Z,25.10
2019-02-02T15:36:26.313Z,25.27
2019-02-02T15:38:55.860Z,21.35
2019-02-02T15:41:25.461Z,21.55
2019-02-02T15:43:55.139Z,19.85
2019-02-02T15:46:24.883Z,19.23
2019-02-02T15:48:54.659Z,19.52
2019-02-02T15:51:24.264Z,17.75
2019-02-02T15:53:53.972Z,19.07
2019-02-02T15:56:23.465Z,18.57
2019-02-02T15:58:53.021Z,18.70
2019-02-02T16:01:22.541Z,18.70
2019-02-02T16:03:52.093Z,17.98
2019-02-02T16:06:22.116Z,17.48
2019-02-02T16:08:52.394Z,16.87
2019-02-02T16:11:22.079Z,16.30
2019-02-02T16:13:51.760Z,19.23
2019-02-02T16:16:21.362Z,18.90
2019-02-02T16:18:50.974Z,19.15
2019-02-02T16:21:20.708Z,17.00
2019-02-02T16:23:50.344Z,15.68
2019-02-02T16:26:19.917Z,14.05
2019-02-02T16:28:49.409Z,15.03
2019-02-02T16:31:19.349Z,14.75
2019-02-02T16:34:01.202Z,15.32
2019-02-02T16:36:19.986Z,15.50
2019-02-02T16:38:49.724Z,14.85
2019-02-02T16:41:19.411Z,16.17
2019-02-02T16:43:49.031Z,15.28
2019-02-02T16:46:18.683Z,15.35
2019-02-02T16:48:48.353Z,28.35
2019-02-02T16:51:17.719Z,23.95
2019-02-02T16:53:48.512Z,27.05
2019-02-02T16:56:21.496Z,21.82
2019-02-02T16:58:51.236Z,22.87
2019-02-02T17:01:20.784Z,27.13
2019-02-02T17:03:50.412Z,31.17
2019-02-02T17:06:19.885Z,25.65
2019-02-02T17:08:49.491Z,25.95
2019-02-02T17:11:20.033Z,31.55
2019-02-02T17:13:52.380Z,67.22
2019-02-02T17:16:19.127Z,35.23
2019-02-02T17:18:48.865Z,32.17
2019-02-02T17:21:18.428Z,37.95
2019-02-02T17:23:48.095Z,28.00
2019-02-02T17:26:17.796Z,25.50
2019-02-02T17:28:47.187Z,24.45
2019-02-02T17:31:16.936Z,21.68
2019-02-02T17:33:46.496Z,23.00
2019-02-02T17:36:17.639Z,22.90
2019-02-02T17:38:47.267Z,24.40
2019-02-02T17:41:16.947Z,27.62
2019-02-02T17:43:46.588Z,26.25
2019-02-02T17:46:16.053Z,36.80
2019-02-02T17:48:45.846Z,34.50
2019-02-02T17:51:15.544Z,33.67
2019-02-02T17:53:45.104Z,35.55
2019-02-02T17:56:14.856Z,33.67
2019-02-02T17:58:44.435Z,48.83
2019-02-02T18:01:14.194Z,903.05
2019-02-02T18:03:43.909Z,999.90
2019-02-02T18:06:13.707Z,670.10
2019-02-02T18:08:43.327Z,302.55
2019-02-02T18:11:12.974Z,828.15
2019-02-02T18:13:42.789Z,121.75
2019-02-02T18:16:12.547Z,620.92
2019-02-02T18:18:42.208Z,727.17
2019-02-02T18:21:12.065Z,854.70
2019-02-02T18:23:42.279Z,331.73
2019-02-02T18:26:11.782Z,230.63
2019-02-02T18:28:41.436Z,125.23
2019-02-02T18:31:11.191Z,33.30
2019-02-02T18:33:40.882Z,27.07
2019-02-02T18:36:10.551Z,25.67
2019-02-02T18:38:40.216Z,26.45
2019-02-02T18:41:10.295Z,26.97
2019-02-02T18:43:40.098Z,28.32
2019-02-02T18:46:09.547Z,29.45
2019-02-02T18:48:39.268Z,30.17
2019-02-02T18:51:08.800Z,31.02
2019-02-02T18:53:38.375Z,37.03
2019-02-02T18:56:12.926Z,35.63
2019-02-02T18:58:42.442Z,38.17
2019-02-02T19:01:12.055Z,38.67
2019-02-02T19:03:41.575Z,37.70
2019-02-02T19:06:11.136Z,36.75
2019-02-02T19:08:40.732Z,70.25
2019-02-02T19:11:10.485Z,38.83
2019-02-02T19:13:40.088Z,34.03
2019-02-02T19:16:09.784Z,38.25
2019-02-02T19:18:39.504Z,36.10
2019-02-02T19:21:09.036Z,38.42
2019-02-02T19:23:38.539Z,34.20
2019-02-02T19:26:08.356Z,32.70
2019-02-02T19:28:39.956Z,33.78
2019-02-02T19:31:07.447Z,33.53
2019-02-02T19:33:37.281Z,35.38
2019-02-02T19:36:06.837Z,34.43
2019-02-02T19:38:36.848Z,45.08
2019-02-02T19:41:06.760Z,28.30
2019-02-02T19:43:36.275Z,29.92
2019-02-02T19:46:05.979Z,30.15
2019-02-02T19:48:35.744Z,29.72
2019-02-02T19:51:05.465Z,32.30
2019-02-02T19:53:35.252Z,28.20
2019-02-02T19:56:05.015Z,32.30
2019-02-02T19:58:34.730Z,31.37
2019-02-02T20:01:04.531Z,40.30
2019-02-02T20:03:34.042Z,30.55
2019-02-02T20:06:03.695Z,30.45
2019-02-02T20:08:33.154Z,31.25
2019-02-02T20:11:02.772Z,30.92
2019-02-02T20:13:32.380Z,30.50
2019-02-02T20:16:04.100Z,32.50
2019-02-02T20:18:31.855Z,29.92
2019-02-02T20:21:01.279Z,40.03
2019-02-02T20:23:30.946Z,40.10
2019-02-02T20:26:00.563Z,34.70
2019-02-02T20:28:30.235Z,34.85
2019-02-02T20:30:59.993Z,35.08
2019-02-02T20:33:29.695Z,35.05
2019-02-02T20:35:59.371Z,39.33
2019-02-02T20:38:28.888Z,38.60
2019-02-02T20:40:59.351Z,37.65
2019-02-02T20:43:29.093Z,39.33
2019-02-02T20:45:58.615Z,43.90
2019-02-02T20:48:28.268Z,43.00
2019-02-02T20:50:57.797Z,50.48
2019-02-02T20:53:27.353Z,54.95
2019-02-02T20:55:56.888Z,67.85
2019-02-02T20:58:26.358Z,59.73
2019-02-02T21:00:55.860Z,58.17
2019-02-02T21:03:25.632Z,56.98
2019-02-02T21:05:55.072Z,65.35
2019-02-02T21:08:24.742Z,60.48
2019-02-02T21:10:54.243Z,63.58
2019-02-02T21:13:24.428Z,66.82
2019-02-02T21:15:53.921Z,63.90
2019-02-02T21:18:23.587Z,64.32
2019-02-02T21:20:53.236Z,63.33
2019-02-02T21:23:23.036Z,66.75
2019-02-02T21:25:52.699Z,64.45
2019-02-02T21:28:22.306Z,64.22
2019-02-02T21:30:51.876Z,62.10
2019-02-02T21:33:21.564Z,67.45
2019-02-02T21:35:51.105Z,66.25
2019-02-02T21:38:20.684Z,66.30
2019-02-02T21:40:50.427Z,67.53
2019-02-02T21:43:19.932Z,65.12
2019-02-02T21:45:49.399Z,67.22
2019-02-02T21:48:20.505Z,69.87
2019-02-02T21:50:50.193Z,65.50
2019-02-02T21:53:19.953Z,67.35
2019-02-02T21:55:49.539Z,69.97
2019-02-02T21:58:18.920Z,66.50
2019-02-02T22:00:48.523Z,67.67
2019-02-02T22:03:18.160Z,66.05
2019-02-02T22:05:47.742Z,64.45
2019-02-02T22:08:17.619Z,63.90
2019-02-02T22:10:47.418Z,61.48
2019-02-02T22:13:17.008Z,62.62
2019-02-02T22:15:46.675Z,60.25
2019-02-02T22:18:16.376Z,60.70
2019-02-02T22:20:45.885Z,62.88
2019-02-02T22:23:15.488Z,60.08
2019-02-02T22:25:45.251Z,69.10
2019-02-02T22:28:14.818Z,69.27
2019-02-02T22:30:44.588Z,59.77
2019-02-02T22:33:13.986Z,55.55
2019-02-02T22:35:43.344Z,56.30
2019-02-02T22:38:13.110Z,54.80
2019-02-02T22:40:42.756Z,54.35
2019-02-02T22:43:12.307Z,53.42
2019-02-02T22:45:41.893Z,53.00
2019-02-02T22:48:11.421Z,53.13
2019-02-02T22:50:40.888Z,51.55
2019-02-02T22:53:10.572Z,55.60
2019-02-02T22:55:40.238Z,53.42
2019-02-02T22:58:09.881Z,53.28
2019-02-02T23:00:49.884Z,53.73
2019-02-02T23:03:20.161Z,53.90
2019-02-02T23:06:05.973Z,53.17
2019-02-02T23:10:51.076Z,52.88
2019-02-02T23:14:33.473Z,88.12
2019-02-02T23:17:03.185Z,53.17
2019-02-02T23:19:32.644Z,53.98
2019-02-02T23:22:02.319Z,53.65
2019-02-02T23:24:31.839Z,52.95
2019-02-02T23:27:01.392Z,50.67
2019-02-02T23:29:30.829Z,51.40
2019-02-02T23:32:00.564Z,51.15
2019-02-02T23:34:30.156Z,49.80
2019-02-02T23:36:59.799Z,52.45
2019-02-02T23:39:29.214Z,51.65
2019-02-02T23:41:58.931Z,51.70
2019-02-02T23:44:28.472Z,48.87
2019-02-02T23:46:58.179Z,49.05
2019-02-02T23:49:27.794Z,48.80
2019-02-02T23:51:57.395Z,46.80
2019-02-02T23:54:27.209Z,50.25
2019-02-02T23:56:56.931Z,49.20
2019-02-02T23:59:26.520Z,46.13
